Time;durP1;ratioP1;P1;durP2;ratioP2;P2;SDS_P1;SDS_P2;PMS_P1;PMS_P2;Temp;Humidity;BMP_temperature;BMP_pressure;BME280_temperature;BME280_humidity;BME280_pressure;Samples;Min_cycle;Max_cycle;Signal;HPM_P1;HPM_P2
2021/12/10 05:32:32;;;;;;;19.10;8.88;;;2.80;99.90;;;;;;5082353;27;20828;-62
2021/12/10 05:34:59;;;;;;;19.40;10.32;;;2.70;99.90;;;;;;5083263;28;20024;-62
2021/12/10 05:37:25;;;;;;;21.70;10.60;;;2.70;99.90;;;;;;5082345;28;20020;-62
2021/12/10 05:39:50;;;;;;;;;;;2.70;99.90;;;;;;5079645;28;20025;-63
2021/12/10 05:42:16;;;;;;;21.30;9.77;;;2.70;99.90;;;;;;5080493;28;19912;-63
2021/12/10 05:44:42;;;;;;;23.52;11.00;;;2.60;99.90;;;;;;5080222;28;20099;-63
2021/12/10 05:47:08;;;;;;;;;;;2.60;99.90;;;;;;5081535;28;20086;-62
2021/12/10 05:49:34;;;;;;;18.98;10.75;;;2.60;99.90;;;;;;5080749;28;20327;-63
2021/12/10 05:52:00;;;;;;;21.85;9.50;;;2.60;99.90;;;;;;5081858;28;20029;-63
2021/12/10 05:54:25;;;;;;;18.83;9.43;;;2.60;99.90;;;;;;5080503;28;20380;-62
2021/12/10 05:56:51;;;;;;;16.98;8.70;;;2.60;99.90;;;;;;5081827;28;20032;-62
2021/12/10 05:59:16;;;;;;;17.20;9.80;;;2.60;99.90;;;;;;5079260;28;20029;-62
2021/12/10 13:02:32;;;;;;;9.73;5.83;;;5.20;99.90;;;;;;5088260;27;20352;-63
2021/12/10 13:04:58;;;;;;;17.08;9.35;;;5.20;99.90;;;;;;5080483;28;20503;-63
2021/12/10 13:07:24;;;;;;;13.10;7.50;;;5.10;99.90;;;;;;5075862;28;20037;-63
2021/12/10 13:09:57;;;;;;;14.30;8.18;;;5.10;99.90;;;;;;5075916;28;20943;-63
2021/12/10 13:13:06;;;;;;;11.95;6.78;;;5.10;99.90;;;;;;5076415;28;20537;-63
2021/12/10 13:15:33;;;;;;;15.15;8.00;;;5.10;99.90;;;;;;5079441;28;20038;-63
2021/12/10 13:18:05;;;;;;;13.25;6.70;;;5.00;99.90;;;;;;5077247;28;20127;-63
2021/12/10 13:20:38;;;;;;;11.95;7.75;;;4.90;99.90;;;;;;5073567;28;20043;-63
2021/12/10 13:23:08;;;;;;;18.30;9.20;;;4.80;99.90;;;;;;5073934;28;20063;-63
2021/12/10 13:25:35;;;;;;;27.75;8.55;;;4.80;99.90;;;;;;5076255;28;20028;-63
2021/12/10 13:28:02;;;;;;;33.70;12.80;;;4.70;99.90;;;;;;5071463;28;20513;-63
2021/12/10 13:30:42;;;;;;;22.30;8.27;;;4.80;99.90;;;;;;5080061;28;20028;-64
2021/12/10 13:33:10;;;;;;;19.17;7.93;;;4.80;99.90;;;;;;5076733;28;20500;-63
2021/12/10 13:35:35;;;;;;;20.70;8.35;;;4.80;99.90;;;;;;5069179;28;20039;-63
2021/12/10 13:38:02;;;;;;;17.58;8.90;;;4.80;99.90;;;;;;5077867;28;20028;-63
2021/12/10 13:40:31;;;;;;;27.23;10.25;;;4.90;99.90;;;;;;5075703;28;20032;-63
2021/12/10 13:43:02;;;;;;;19.13;6.75;;;4.90;99.90;;;;;;5078311;28;20024;-63
2021/12/10 13:45:28;;;;;;;7.65;5.43;;;5.00;99.90;;;;;;5075398;28;20115;-63
2021/12/10 13:48:02;;;;;;;;;;;5.00;99.90;;;;;;5076585;28;20496;-63
2021/12/10 13:50:34;;;;;;;19.98;7.55;;;5.00;99.90;;;;;;5074546;28;20265;-62
2021/12/10 13:53:09;;;;;;;30.38;7.82;;;5.10;99.90;;;;;;5076431;28;20035;-63
2021/12/10 13:55:42;;;;;;;15.00;7.20;;;5.30;99.90;;;;;;5075428;28;20040;-63
2021/12/10 13:58:10;;;;;;;13.40;6.10;;;5.40;99.90;;;;;;5078276;28;20550;-63
2021/12/10 20:32:45;;;;;;;60.55;18.33;;;0.90;99.90;;;;;;5093029;27;20350;-61
2021/12/10 20:35:25;;;;;;;99.57;21.33;;;0.80;99.90;;;;;;5089206;28;20016;-61
2021/12/10 20:37:56;;;;;;;72.18;21.75;;;0.70;99.90;;;;;;5087746;28;20028;-61
2021/12/10 20:40:28;;;;;;;66.28;20.42;;;0.60;99.90;;;;;;5089249;28;20106;-61
2021/12/10 20:43:01;;;;;;;87.63;23.83;;;0.60;99.90;;;;;;5092053;28;20024;-61
2021/12/10 20:45:46;;;;;;;87.82;26.70;;;0.70;99.90;;;;;;5091934;28;20020;-61
2021/12/10 20:48:16;;;;;;;72.50;23.40;;;0.70;99.90;;;;;;5083186;28;20035;-61
2021/12/10 20:50:53;;;;;;;117.47;22.13;;;0.70;99.90;;;;;;5083656;28;20025;-61
2021/12/10 20:53:36;;;;;;;90.80;24.63;;;0.60;99.90;;;;;;5087237;28;20024;-61
2021/12/10 20:56:09;;;;;;;94.05;28.02;;;0.60;99.90;;;;;;5092143;28;20020;-61
2021/12/10 20:58:44;;;;;;;249.32;88.40;;;0.50;99.90;;;;;;5084760;28;20473;-61
